SBBW

Details ICAO SBBW
Name BARRA DO GARCAS
Region Brazil
Timezone America/Cuiaba (UTC-4.0)
Plans Departing 15
Arriving 12
Stats Elevation 1,147 ft / 350 m (AMSL)
Location -15.861343° -52.388893°
Runways 1
Magnetic Variation 19.584° W
Sunrise 2018-05-20 09:47:33 UTC / 2018-05-20 05:47:33 Local
Sunset 2018-05-20 21:07:29 UTC / 2018-05-20 17:07:29 Local
Advertisement - Login to hide

Runways

ID Width Length Bearing (true) Bearing (mag) Surface Threshold Offset Overrun Length
07 98 ft / 30 m 5,256 ft / 1,602 m 50.89° 70.47° Asphalt 0 ft / 0 m 190 ft / 58 m
25 98 ft / 30 m 5,256 ft / 1,602 m 230.89° 250.47° Asphalt 0 ft / 0 m 190 ft / 58 m

Map

Weather


0- 5 10 15 20 25 30 35+ Temperature / ° C

Clouds and Precipitation
Forecast for 2018-05-21 00:00 UTC. Updated 13 minutes ago

Ground ~20,000 ft ~40,000 ft Winds

METAR

Not found

TAF

TAF SBBW 201600Z 2018/2106 00000KT 9999 SCT020 TX31/2018Z TN23/2106Z TEMPO 2019/2021 SCT020 FEW025TCU RMK PEW

Frequencies

Tower 125.90 MHz GARCAS RDO
Warning: Do not use this data for real-world aviation or navigation. No guarantee of current accuracy is given.